createdAt,value
2022-09-03T00:01:19.438Z,28.05
2022-09-03T00:03:48.548Z,28.06
2022-09-03T00:06:19.415Z,28.05
2022-09-03T00:08:49.455Z,28.04
2022-09-03T00:11:19.976Z,28.05
2022-09-03T00:13:52.664Z,27.94
2022-09-03T00:16:21.781Z,28.05
2022-09-03T00:18:51.656Z,27.99
2022-09-03T00:21:32.217Z,28.05
2022-09-03T00:24:00.061Z,28.04
2022-09-03T00:26:29.367Z,27.82
2022-09-03T00:29:00.906Z,27.97
2022-09-03T00:31:30.682Z,28.04
2022-09-03T00:34:00.422Z,28.03
2022-09-03T00:36:34.546Z,28.02
2022-09-03T00:39:02.286Z,28.03
2022-09-03T00:41:33.748Z,27.98
2022-09-03T00:44:12.267Z,28.04
2022-09-03T00:46:42.968Z,27.15
2022-09-03T00:49:34.223Z,28.03
2022-09-03T00:52:12.743Z,27.99
2022-09-03T00:54:44.676Z,27.95
2022-09-03T00:57:30.659Z,28.03
2022-09-03T01:00:01.647Z,27.75
2022-09-03T01:02:35.670Z,28.02
2022-09-03T01:05:06.891Z,28.00
2022-09-03T01:07:46.234Z,28.03
2022-09-03T01:10:19.955Z,28.02
2022-09-03T01:12:51.358Z,28.03
2022-09-03T01:15:22.335Z,27.99
2022-09-03T01:18:00.498Z,28.02
2022-09-03T01:20:34.008Z,27.95
2022-09-03T01:23:29.218Z,28.01
2022-09-03T01:26:03.158Z,28.03
2022-09-03T01:28:39.037Z,28.02
2022-09-03T01:31:11.509Z,28.01
2022-09-03T01:33:41.334Z,28.02
2022-09-03T01:36:13.076Z,28.01
2022-09-03T01:38:43.076Z,28.02
2022-09-03T01:41:32.592Z,28.01
2022-09-03T01:44:04.669Z,28.01
2022-09-03T01:46:34.632Z,27.99
2022-09-03T01:49:04.955Z,28.00
2022-09-03T01:51:33.164Z,28.01
2022-09-03T01:54:25.759Z,28.01
2022-09-03T01:57:35.873Z,28.01
2022-09-03T02:00:10.014Z,28.00
2022-09-03T02:02:37.936Z,28.00
2022-09-03T02:05:09.286Z,28.00
2022-09-03T02:07:38.724Z,28.00
2022-09-03T02:10:08.183Z,28.00
2022-09-03T02:12:38.076Z,28.01
2022-09-03T02:15:12.435Z,28.01
2022-09-03T02:17:40.615Z,28.00
2022-09-03T02:20:10.887Z,28.00
2022-09-03T02:22:39.040Z,28.00
2022-09-03T02:25:07.435Z,27.99
2022-09-03T02:27:35.368Z,28.00
2022-09-03T02:30:03.195Z,27.99
2022-09-03T02:32:32.712Z,27.99
2022-09-03T02:35:00.788Z,27.99
2022-09-03T02:37:28.588Z,28.00
2022-09-03T02:39:56.355Z,28.00
2022-09-03T02:42:24.301Z,27.97
2022-09-03T02:44:53.853Z,28.00
2022-09-03T02:47:22.108Z,28.00
2022-09-03T02:49:51.266Z,27.98
2022-09-03T02:52:19.074Z,27.98
2022-09-03T02:54:47.107Z,27.99
2022-09-03T02:57:16.429Z,27.98
2022-09-03T02:59:50.186Z,27.98
2022-09-03T03:02:18.053Z,27.97
2022-09-03T03:04:46.137Z,27.99
2022-09-03T03:07:15.322Z,27.99
2022-09-03T03:09:43.172Z,28.00
2022-09-03T03:12:11.045Z,27.99
2022-09-03T03:14:39.127Z,27.99
2022-09-03T03:17:06.902Z,27.98
2022-09-03T03:19:34.731Z,28.00
2022-09-03T03:22:02.536Z,27.99
2022-09-03T03:24:31.664Z,28.00
2022-09-03T03:26:59.504Z,28.00
2022-09-03T03:29:28.436Z,27.99
2022-09-03T03:31:56.216Z,27.99
2022-09-03T03:34:24.275Z,27.98
2022-09-03T03:36:52.093Z,27.98
2022-09-03T03:39:20.898Z,27.98
2022-09-03T03:41:52.330Z,27.99
2022-09-03T03:44:20.738Z,27.99
2022-09-03T03:46:48.562Z,27.98
2022-09-03T03:49:16.409Z,27.97
2022-09-03T03:51:44.163Z,27.99
2022-09-03T03:54:12.209Z,27.99
2022-09-03T03:56:46.843Z,27.98
2022-09-03T03:59:24.658Z,27.99
2022-09-03T04:01:52.499Z,27.99
2022-09-03T04:04:20.223Z,27.99
2022-09-03T04:06:48.067Z,27.99
2022-09-03T04:09:15.847Z,27.99
2022-09-03T04:11:43.636Z,27.98
2022-09-03T04:14:11.709Z,27.99
2022-09-03T04:16:40.936Z,27.98
2022-09-03T04:19:08.759Z,28.00
2022-09-03T04:21:36.777Z,27.99
2022-09-03T04:24:05.647Z,27.99
2022-09-03T04:26:34.020Z,27.99
2022-09-03T04:29:03.093Z,27.99
2022-09-03T04:31:31.819Z,28.00
2022-09-03T04:34:01.407Z,28.00
2022-09-03T04:36:30.212Z,27.99
2022-09-03T04:38:59.842Z,27.99
2022-09-03T04:41:28.252Z,27.99
2022-09-03T04:43:57.134Z,27.98
2022-09-03T04:46:26.454Z,27.99
2022-09-03T04:48:54.992Z,27.99
2022-09-03T04:51:25.465Z,27.98
2022-09-03T04:53:56.641Z,27.98
2022-09-03T04:56:25.271Z,27.98
2022-09-03T04:58:55.901Z,27.99
2022-09-03T05:01:24.558Z,27.98
2022-09-03T05:03:52.793Z,27.98
2022-09-03T05:06:20.652Z,27.98
2022-09-03T05:08:50.518Z,27.98
2022-09-03T05:11:18.661Z,27.99
2022-09-03T05:13:48.669Z,27.98
2022-09-03T05:16:16.643Z,27.99
2022-09-03T05:18:45.113Z,27.98
2022-09-03T05:21:13.714Z,27.98
2022-09-03T05:23:42.694Z,27.99
2022-09-03T05:26:14.114Z,27.99
2022-09-03T05:28:42.651Z,27.99
2022-09-03T05:31:11.315Z,27.99
2022-09-03T05:33:40.055Z,27.98
2022-09-03T05:36:09.088Z,27.98
2022-09-03T05:38:36.980Z,27.98
2022-09-03T05:41:05.627Z,27.99
2022-09-03T05:43:34.940Z,27.99
2022-09-03T05:46:04.301Z,27.99
2022-09-03T05:48:32.428Z,27.95
2022-09-03T05:51:01.926Z,27.99
2022-09-03T05:53:29.669Z,27.99
2022-09-03T05:55:58.301Z,27.99
2022-09-03T05:58:26.910Z,27.98
2022-09-03T06:00:56.138Z,27.89
2022-09-03T06:03:24.204Z,27.99
2022-09-03T06:05:52.704Z,27.99
2022-09-03T06:08:20.438Z,27.99
2022-09-03T06:10:48.283Z,27.97
2022-09-03T06:13:16.061Z,27.98
2022-09-03T06:15:44.131Z,27.97
2022-09-03T06:18:13.364Z,27.98
2022-09-03T06:20:41.118Z,27.99
2022-09-03T06:23:08.903Z,27.99
2022-09-03T06:25:37.279Z,27.98
2022-09-03T06:28:08.890Z,27.98
2022-09-03T06:30:37.255Z,27.99
2022-09-03T06:33:05.085Z,27.99
2022-09-03T06:35:42.842Z,27.99
2022-09-03T06:38:12.430Z,27.99
2022-09-03T06:40:40.280Z,27.99
2022-09-03T06:43:08.105Z,27.99
2022-09-03T06:45:35.975Z,28.00
2022-09-03T06:48:04.144Z,27.99
2022-09-03T06:50:34.657Z,28.00
2022-09-03T06:53:04.002Z,28.00
2022-09-03T06:55:32.018Z,27.96
2022-09-03T06:57:59.773Z,27.99
2022-09-03T07:00:27.982Z,27.99
2022-09-03T07:03:00.698Z,27.98
2022-09-03T07:05:29.078Z,27.99
2022-09-03T07:07:56.827Z,27.98
2022-09-03T07:10:28.027Z,27.99
2022-09-03T07:12:56.320Z,27.99
2022-09-03T07:15:24.396Z,27.99
2022-09-03T07:17:52.144Z,27.96
2022-09-03T07:20:20.568Z,27.99
2022-09-03T07:22:48.494Z,27.99
2022-09-03T07:25:16.285Z,27.99
2022-09-03T07:27:45.433Z,27.98
2022-09-03T07:30:13.934Z,27.99
2022-09-03T07:32:41.689Z,27.99
2022-09-03T07:35:10.037Z,28.00
2022-09-03T07:37:38.483Z,28.00
2022-09-03T07:40:07.834Z,27.99
2022-09-03T07:42:38.433Z,27.99
2022-09-03T07:45:12.022Z,28.00
2022-09-03T07:47:42.351Z,28.00
2022-09-03T07:50:10.720Z,27.99
2022-09-03T07:52:38.501Z,28.00
2022-09-03T07:55:07.460Z,27.99
2022-09-03T07:57:35.251Z,28.00
2022-09-03T08:00:03.366Z,27.96
2022-09-03T08:02:33.672Z,27.98
2022-09-03T08:05:02.069Z,27.98
2022-09-03T08:07:30.547Z,28.00
2022-09-03T08:09:59.197Z,27.99
2022-09-03T08:12:27.293Z,28.00
2022-09-03T08:14:57.270Z,27.99
2022-09-03T08:17:25.063Z,28.00
2022-09-03T08:19:55.039Z,27.99
2022-09-03T08:22:22.809Z,27.99
2022-09-03T08:24:50.676Z,27.97
2022-09-03T08:27:25.454Z,27.99
2022-09-03T08:29:53.690Z,27.99
2022-09-03T08:32:22.913Z,28.00
2022-09-03T08:34:52.284Z,27.96
2022-09-03T08:37:29.007Z,27.99
2022-09-03T08:39:56.858Z,27.99
2022-09-03T08:42:33.404Z,28.00
2022-09-03T08:45:02.667Z,27.99
2022-09-03T08:47:31.463Z,27.99
2022-09-03T08:50:00.472Z,27.99
2022-09-03T08:52:33.525Z,27.99
2022-09-03T08:55:15.077Z,28.00
2022-09-03T08:57:44.941Z,28.00
2022-09-03T09:00:13.714Z,28.00
2022-09-03T09:02:47.851Z,28.00
2022-09-03T09:05:19.450Z,28.00
2022-09-03T09:07:53.385Z,27.99
2022-09-03T09:10:24.009Z,27.97
2022-09-03T09:12:57.999Z,27.99
2022-09-03T09:15:29.821Z,27.95
2022-09-03T09:18:05.103Z,27.94
2022-09-03T09:20:36.991Z,27.99
2022-09-03T09:23:07.554Z,27.99
2022-09-03T09:25:42.428Z,27.94
2022-09-03T09:28:14.975Z,28.00
2022-09-03T09:30:42.781Z,28.01
2022-09-03T09:33:10.615Z,28.00
2022-09-03T09:35:41.893Z,28.00
2022-09-03T09:38:11.189Z,28.01
2022-09-03T09:40:44.733Z,28.00
2022-09-03T09:43:16.003Z,28.00
2022-09-03T09:45:45.229Z,28.00
2022-09-03T09:48:19.006Z,28.01
2022-09-03T09:50:46.902Z,28.01
2022-09-03T09:53:18.641Z,28.03
2022-09-03T09:55:53.607Z,28.04
2022-09-03T09:58:25.240Z,28.03
2022-09-03T10:00:59.903Z,28.04
2022-09-03T10:03:29.923Z,28.04
2022-09-03T10:06:24.963Z,27.97
2022-09-03T10:08:55.183Z,28.04
2022-09-03T10:11:25.469Z,28.04
2022-09-03T10:13:53.615Z,28.04
2022-09-03T10:16:26.077Z,28.04
2022-09-03T10:18:57.165Z,28.03
2022-09-03T10:21:27.577Z,28.05
2022-09-03T10:23:59.613Z,28.03
2022-09-03T10:26:32.414Z,28.06
2022-09-03T10:29:01.624Z,28.04
2022-09-03T10:31:42.314Z,28.05
2022-09-03T10:34:13.986Z,28.06
2022-09-03T10:36:44.974Z,28.04
2022-09-03T10:39:15.834Z,28.05
2022-09-03T10:41:55.922Z,28.03
2022-09-03T10:44:46.905Z,28.03
2022-09-03T10:47:23.715Z,28.06
2022-09-03T10:49:53.417Z,28.07
2022-09-03T10:52:28.823Z,28.06
2022-09-03T10:55:05.664Z,28.09
2022-09-03T10:57:37.104Z,28.10
2022-09-03T11:00:10.389Z,28.09
2022-09-03T11:02:54.616Z,28.11
2022-09-03T11:05:23.212Z,28.12
2022-09-03T11:07:53.200Z,28.12
2022-09-03T11:10:25.016Z,28.04
2022-09-03T11:13:03.648Z,28.12
2022-09-03T11:15:34.289Z,28.14
2022-09-03T11:18:04.930Z,28.12
2022-09-03T11:20:32.840Z,28.10
2022-09-03T11:23:01.833Z,28.13
2022-09-03T11:25:32.878Z,28.14
2022-09-03T11:28:09.982Z,28.12
2022-09-03T11:30:41.542Z,28.15
2022-09-03T11:33:10.877Z,28.16
2022-09-03T11:35:41.708Z,28.15
2022-09-03T11:38:21.503Z,28.15
2022-09-03T11:40:59.869Z,28.16
2022-09-03T11:43:29.008Z,28.17
2022-09-03T11:46:05.026Z,28.16
2022-09-03T11:48:38.244Z,28.16
2022-09-03T11:51:06.160Z,28.16
2022-09-03T11:53:37.466Z,28.17
2022-09-03T11:56:18.979Z,28.17
2022-09-03T11:58:47.593Z,28.19
2022-09-03T12:01:16.395Z,28.18
2022-09-03T12:03:45.969Z,28.21
2022-09-03T12:06:51.857Z,28.22
2022-09-03T12:09:31.022Z,28.22
2022-09-03T12:12:06.054Z,28.25
2022-09-03T12:14:37.210Z,28.20
2022-09-03T12:17:18.374Z,28.21
2022-09-03T12:19:48.941Z,28.21
2022-09-03T12:22:17.022Z,28.29
2022-09-03T12:24:45.379Z,28.30
2022-09-03T12:27:17.638Z,28.32
2022-09-03T12:29:59.886Z,28.32
2022-09-03T12:32:28.544Z,28.34
2022-09-03T12:34:56.372Z,28.32
2022-09-03T12:40:23.798Z,28.36
2022-09-03T12:42:53.098Z,28.37
2022-09-03T12:45:23.047Z,28.38
2022-09-03T12:47:51.296Z,28.40
2022-09-03T12:50:20.329Z,28.41
2022-09-03T12:52:49.080Z,28.43
2022-09-03T12:55:28.403Z,28.43
2022-09-03T12:58:02.645Z,28.44
2022-09-03T13:00:30.688Z,28.46
2022-09-03T13:03:01.465Z,28.48
2022-09-03T13:05:32.881Z,28.48
2022-09-03T13:08:05.446Z,28.49
2022-09-03T13:10:34.909Z,28.51
2022-09-03T13:13:05.316Z,28.51
2022-09-03T13:15:34.024Z,28.52
2022-09-03T13:18:24.907Z,28.53
2022-09-03T13:21:04.357Z,28.51
2022-09-03T13:23:49.803Z,28.52
2022-09-03T13:26:23.301Z,28.53
2022-09-03T13:29:03.049Z,28.53
2022-09-03T13:31:33.543Z,28.35
2022-09-03T13:34:04.117Z,28.53
2022-09-03T13:36:32.783Z,28.48
2022-09-03T13:39:05.963Z,28.51
2022-09-03T13:41:37.066Z,28.54
2022-09-03T13:44:08.840Z,28.56
2022-09-03T13:46:41.127Z,28.56
2022-09-03T13:49:29.487Z,28.56
2022-09-03T13:51:59.324Z,28.55
2022-09-03T13:54:48.091Z,28.55
2022-09-03T13:57:23.408Z,28.55
2022-09-03T13:59:53.535Z,28.53
2022-09-03T14:02:25.155Z,28.54
2022-09-03T14:05:00.061Z,28.47
2022-09-03T14:07:30.320Z,28.47
2022-09-03T14:10:02.485Z,28.52
2022-09-03T14:12:37.153Z,28.52
2022-09-03T14:15:08.967Z,28.32
2022-09-03T14:17:40.115Z,28.51
2022-09-03T14:20:09.822Z,28.50
2022-09-03T14:22:46.723Z,28.51
2022-09-03T14:25:16.575Z,28.49
2022-09-03T14:27:44.372Z,28.45
2022-09-03T14:30:21.720Z,28.50
2022-09-03T14:32:50.754Z,28.48
2022-09-03T14:35:28.324Z,28.48
2022-09-03T14:38:34.937Z,28.47
2022-09-03T14:41:06.305Z,28.47
2022-09-03T14:44:09.904Z,28.40
2022-09-03T14:46:49.193Z,28.46
2022-09-03T14:49:27.236Z,28.45
2022-09-03T14:52:03.516Z,28.45
2022-09-03T14:54:56.954Z,28.45
2022-09-03T14:57:39.986Z,28.42
2022-09-03T15:00:18.244Z,28.43
2022-09-03T15:03:22.270Z,28.43
2022-09-03T15:06:13.515Z,28.42
2022-09-03T15:08:49.071Z,28.42
2022-09-03T15:11:18.391Z,28.42
2022-09-03T15:13:49.767Z,28.42
2022-09-03T15:16:44.639Z,28.42
2022-09-03T15:19:18.152Z,28.41
2022-09-03T15:21:59.349Z,28.42
2022-09-03T15:24:31.784Z,28.41
2022-09-03T15:27:06.571Z,28.40
2022-09-03T15:29:49.725Z,28.41
2022-09-03T15:32:23.507Z,28.40
2022-09-03T15:35:05.102Z,28.34
2022-09-03T15:37:36.011Z,28.37
2022-09-03T15:40:06.682Z,28.39
2022-09-03T15:42:34.480Z,28.39
2022-09-03T15:45:04.941Z,28.39
2022-09-03T15:47:53.977Z,28.35
2022-09-03T15:50:34.113Z,28.40
2022-09-03T15:53:04.996Z,28.37
2022-09-03T15:55:37.081Z,28.39
2022-09-03T15:58:09.802Z,28.38
2022-09-03T16:00:52.735Z,28.39
2022-09-03T16:03:24.271Z,28.37
2022-09-03T16:05:56.015Z,28.37
2022-09-03T16:08:25.481Z,28.29
2022-09-03T16:11:01.721Z,28.32
2022-09-03T16:13:37.549Z,28.37
2022-09-03T16:16:06.609Z,28.30
2022-09-03T16:18:35.821Z,28.11
2022-09-03T16:21:07.102Z,28.37
2022-09-03T16:23:39.551Z,28.37
2022-09-03T16:26:09.763Z,28.36
2022-09-03T16:28:38.877Z,28.35
2022-09-03T16:31:13.070Z,28.35
2022-09-03T16:33:44.439Z,28.36
2022-09-03T16:36:37.272Z,28.35
2022-09-03T16:39:11.017Z,28.36
2022-09-03T16:41:44.117Z,28.12
2022-09-03T16:44:16.057Z,28.36
2022-09-03T16:46:47.134Z,28.36
2022-09-03T16:49:26.795Z,28.36
2022-09-03T16:51:57.190Z,28.37
2022-09-03T16:54:32.676Z,28.37
2022-09-03T16:57:04.643Z,28.38
2022-09-03T16:59:58.463Z,28.35
2022-09-03T17:02:41.622Z,28.40
2022-09-03T17:05:16.009Z,28.40
2022-09-03T17:08:06.170Z,28.39
2022-09-03T17:10:40.169Z,28.41
2022-09-03T17:13:28.580Z,28.41
2022-09-03T17:15:57.146Z,27.98
2022-09-03T17:18:32.310Z,28.42
2022-09-03T17:21:26.672Z,28.43
2022-09-03T17:24:03.473Z,28.42
2022-09-03T17:26:35.250Z,28.42
2022-09-03T17:29:09.023Z,28.44
2022-09-03T17:31:42.914Z,28.43
2022-09-03T17:34:14.639Z,28.43
2022-09-03T17:36:49.662Z,28.22
2022-09-03T17:39:58.432Z,28.44
2022-09-03T17:42:28.895Z,28.27
2022-09-03T17:45:04.539Z,28.43
2022-09-03T17:47:43.411Z,28.44
2022-09-03T17:50:16.232Z,28.45
2022-09-03T17:52:46.190Z,28.24
2022-09-03T17:55:18.507Z,28.45
2022-09-03T17:57:47.147Z,28.45
2022-09-03T18:00:23.788Z,28.44
2022-09-03T18:02:53.609Z,28.39
2022-09-03T18:05:23.908Z,28.39
2022-09-03T18:07:54.289Z,28.44
2022-09-03T18:10:28.407Z,28.44
2022-09-03T18:13:03.578Z,28.44
2022-09-03T18:15:33.941Z,28.44
2022-09-03T18:18:04.268Z,28.44
2022-09-03T18:21:21.124Z,28.44
2022-09-03T18:24:06.521Z,28.43
2022-09-03T18:26:54.674Z,28.43
2022-09-03T18:29:44.151Z,28.41
2022-09-03T18:32:29.683Z,28.40
2022-09-03T18:35:14.961Z,28.41
2022-09-03T18:38:00.410Z,28.41
2022-09-03T18:40:47.369Z,28.41
2022-09-03T18:43:38.423Z,28.40
2022-09-03T18:47:16.456Z,28.39
2022-09-03T18:49:35.248Z,28.39
2022-09-03T18:52:24.005Z,28.39
2022-09-03T18:55:16.368Z,28.38
2022-09-03T18:58:07.311Z,28.33
2022-09-03T19:00:54.961Z,28.38
2022-09-03T19:03:45.082Z,28.39
2022-09-03T19:06:37.103Z,28.39
2022-09-03T19:09:25.861Z,28.37
2022-09-03T19:12:17.886Z,28.37
2022-09-03T19:15:08.377Z,28.38
2022-09-03T19:18:04.866Z,28.35
2022-09-03T19:20:50.187Z,28.38
2022-09-03T19:23:35.449Z,28.37
2022-09-03T19:26:23.427Z,28.36
2022-09-03T19:29:10.232Z,28.36
2022-09-03T19:32:00.684Z,28.36
2022-09-03T19:34:57.024Z,28.27
2022-09-03T19:37:44.845Z,28.36
2022-09-03T19:40:48.288Z,28.36
2022-09-03T19:43:37.548Z,28.35
2022-09-03T19:46:26.950Z,28.29
2022-09-03T19:49:18.450Z,28.34
2022-09-03T19:52:11.477Z,28.29
2022-09-03T19:54:56.839Z,28.34
2022-09-03T19:57:41.955Z,28.33
2022-09-03T20:00:33.283Z,28.33
2022-09-03T20:03:18.935Z,28.11
2022-09-03T20:06:08.807Z,28.32
2022-09-03T20:08:58.040Z,28.33
2022-09-03T20:11:27.638Z,28.34
2022-09-03T20:14:13.227Z,28.34
2022-09-03T20:16:43.435Z,28.31
2022-09-03T20:19:15.076Z,28.34
2022-09-03T20:21:46.616Z,28.34
2022-09-03T20:24:24.942Z,28.34
2022-09-03T20:26:58.328Z,28.33
2022-09-03T20:29:44.176Z,28.24
2022-09-03T20:32:13.133Z,28.32
2022-09-03T20:34:45.447Z,28.30
2022-09-03T20:37:24.482Z,28.26
2022-09-03T20:40:13.181Z,28.27
2022-09-03T20:42:54.944Z,28.32
2022-09-03T20:45:24.509Z,28.31
2022-09-03T20:48:02.462Z,28.31
2022-09-03T20:50:43.213Z,28.31
2022-09-03T20:53:42.182Z,28.31
2022-09-03T20:56:14.583Z,28.31
2022-09-03T20:58:44.819Z,28.30
2022-09-03T21:01:15.725Z,28.29
2022-09-03T21:03:45.677Z,28.10
2022-09-03T21:06:21.325Z,28.32
2022-09-03T21:09:15.548Z,28.31
2022-09-03T21:11:47.078Z,28.32
2022-09-03T21:14:21.908Z,28.11
2022-09-03T21:16:55.369Z,28.24
2022-09-03T21:19:26.833Z,28.06
2022-09-03T21:21:57.054Z,28.30
2022-09-03T21:24:31.072Z,28.25
2022-09-03T21:27:03.242Z,27.59
2022-09-03T21:29:33.465Z,28.31
2022-09-03T21:32:03.791Z,28.31
2022-09-03T21:34:32.495Z,28.31
2022-09-03T21:37:01.194Z,28.31
2022-09-03T21:39:31.610Z,28.29
2022-09-03T21:42:04.080Z,28.29
2022-09-03T21:44:44.001Z,28.17
2022-09-03T21:47:12.804Z,28.30
2022-09-03T21:49:52.400Z,28.29
2022-09-03T21:52:21.861Z,28.28
2022-09-03T21:54:51.993Z,28.28
2022-09-03T21:57:24.276Z,28.27
2022-09-03T22:00:17.672Z,28.28
2022-09-03T22:02:46.193Z,28.28
2022-09-03T22:05:14.795Z,28.27
2022-09-03T22:07:53.573Z,28.27
2022-09-03T22:10:23.751Z,28.27
2022-09-03T22:12:57.320Z,28.27
2022-09-03T22:15:25.215Z,28.27
2022-09-03T22:17:55.936Z,28.26
2022-09-03T22:20:24.184Z,28.27
2022-09-03T22:22:56.613Z,28.25
2022-09-03T22:25:29.142Z,28.27
2022-09-03T22:28:03.189Z,28.09
2022-09-03T22:30:32.250Z,28.20
2022-09-03T22:33:02.584Z,28.26
2022-09-03T22:35:49.226Z,28.27
2022-09-03T22:38:44.223Z,28.26
2022-09-03T22:41:20.140Z,28.27
2022-09-03T22:43:50.784Z,28.25
2022-09-03T22:46:19.060Z,28.20
2022-09-03T22:49:18.094Z,28.25
2022-09-03T22:51:56.658Z,28.16
2022-09-03T22:54:33.570Z,28.24
2022-09-03T22:57:01.776Z,28.24
2022-09-03T22:59:32.680Z,28.24
2022-09-03T23:02:04.171Z,28.23
2022-09-03T23:04:35.468Z,28.24
2022-09-03T23:07:05.452Z,28.23
2022-09-03T23:09:36.167Z,28.23
2022-09-03T23:12:06.688Z,28.24
2022-09-03T23:14:48.751Z,27.86
2022-09-03T23:17:20.311Z,28.23
2022-09-03T23:19:48.708Z,28.23
2022-09-03T23:22:19.557Z,28.22
2022-09-03T23:24:49.756Z,28.22
2022-09-03T23:27:18.938Z,28.23
2022-09-03T23:29:49.441Z,28.22
2022-09-03T23:32:17.247Z,28.23
2022-09-03T23:34:45.465Z,28.22
2022-09-03T23:37:33.897Z,28.22
2022-09-03T23:40:25.791Z,28.21
2022-09-03T23:43:27.360Z,28.23
2022-09-03T23:46:01.473Z,28.23
2022-09-03T23:48:34.036Z,28.23
2022-09-03T23:51:07.040Z,28.22
2022-09-03T23:53:41.017Z,28.22
2022-09-03T23:56:33.744Z,28.22
2022-09-03T23:59:06.844Z,28.21
